createdAt,value
2023-05-05T00:01:25.837Z,2.92
2023-05-05T00:03:52.645Z,3.47
2023-05-05T00:06:19.798Z,3.53
2023-05-05T00:08:47.039Z,4.10
2023-05-05T00:11:13.746Z,3.80
2023-05-05T00:13:40.402Z,3.58
2023-05-05T00:16:07.436Z,3.00
2023-05-05T00:18:34.256Z,3.70
2023-05-05T00:21:01.080Z,4.32
2023-05-05T00:23:27.926Z,3.63
2023-05-05T00:25:54.674Z,3.95
2023-05-05T00:28:22.029Z,3.75
2023-05-05T00:30:48.935Z,3.80
2023-05-05T00:33:15.843Z,3.85
2023-05-05T00:35:42.596Z,4.28
2023-05-05T00:38:09.574Z,4.10
2023-05-05T00:40:37.352Z,3.75
2023-05-05T00:43:04.242Z,3.45
2023-05-05T00:45:31.176Z,3.28
2023-05-05T00:47:59.529Z,3.05
2023-05-05T00:50:29.197Z,4.05
2023-05-05T00:53:04.457Z,4.13
2023-05-05T00:55:32.324Z,3.42
2023-05-05T00:58:00.468Z,3.97
2023-05-05T01:00:28.510Z,4.65
2023-05-05T01:02:55.465Z,3.70
2023-05-05T01:05:23.714Z,3.33
2023-05-05T01:08:30.609Z,3.47
2023-05-05T01:11:12.139Z,3.97
2023-05-05T01:14:14.671Z,2.80
2023-05-05T01:16:53.721Z,3.67
2023-05-05T01:19:42.341Z,3.25
2023-05-05T01:22:12.970Z,4.45
2023-05-05T01:24:52.371Z,3.33
2023-05-05T01:27:45.531Z,4.00
2023-05-05T01:30:24.509Z,3.67
2023-05-05T01:32:55.423Z,4.22
2023-05-05T01:35:38.093Z,3.30
2023-05-05T01:38:22.569Z,4.40
2023-05-05T01:40:59.945Z,3.33
2023-05-05T01:43:30.843Z,3.90
2023-05-05T01:45:59.422Z,4.32
2023-05-05T01:48:26.529Z,4.20
2023-05-05T01:50:54.265Z,3.70
2023-05-05T01:53:23.449Z,3.85
2023-05-05T01:55:51.242Z,3.35
2023-05-05T01:58:18.912Z,3.35
2023-05-05T02:00:47.176Z,3.22
2023-05-05T02:03:15.948Z,5.10
2023-05-05T02:05:44.649Z,3.78
2023-05-05T02:08:12.281Z,3.85
2023-05-05T02:10:42.978Z,3.60
2023-05-05T02:13:12.710Z,6.32
2023-05-05T02:15:40.710Z,6.07
2023-05-05T02:18:07.818Z,5.55
2023-05-05T02:20:37.521Z,4.72
2023-05-05T02:23:06.481Z,4.18
2023-05-05T02:25:40.412Z,4.60
2023-05-05T02:28:15.545Z,4.50
2023-05-05T02:30:43.944Z,5.97
2023-05-05T02:33:14.855Z,4.47
2023-05-05T02:35:43.179Z,5.88
2023-05-05T02:38:17.396Z,6.00
2023-05-05T02:40:46.774Z,4.82
2023-05-05T02:43:18.230Z,4.68
2023-05-05T02:45:45.227Z,5.28
2023-05-05T02:48:13.180Z,5.43
2023-05-05T02:50:40.001Z,6.00
2023-05-05T02:53:07.066Z,4.53
2023-05-05T02:55:48.194Z,5.00
2023-05-05T02:58:21.832Z,5.55
2023-05-05T03:01:16.273Z,4.95
2023-05-05T03:04:08.765Z,5.32
2023-05-05T03:06:41.084Z,5.57
2023-05-05T03:09:19.261Z,6.80
2023-05-05T03:11:57.891Z,5.25
2023-05-05T03:14:27.287Z,5.68
2023-05-05T03:16:56.810Z,5.22
2023-05-05T03:19:24.797Z,5.18
2023-05-05T03:21:52.624Z,5.57
2023-05-05T03:24:20.572Z,5.78
2023-05-05T03:26:48.957Z,4.72
2023-05-05T03:29:16.267Z,6.10
2023-05-05T03:31:43.110Z,5.70
2023-05-05T03:34:10.043Z,5.75
2023-05-05T03:36:37.004Z,5.25
2023-05-05T03:39:03.812Z,5.82
2023-05-05T03:41:30.549Z,6.30
2023-05-05T03:43:57.228Z,5.80
2023-05-05T03:46:23.891Z,6.50
2023-05-05T03:48:51.636Z,5.68
2023-05-05T03:51:18.531Z,6.78
2023-05-05T03:53:45.189Z,6.38
2023-05-05T03:56:12.007Z,5.05
2023-05-05T03:58:38.674Z,7.65
2023-05-05T04:01:05.356Z,6.85
2023-05-05T04:03:32.629Z,7.47
2023-05-05T04:05:59.927Z,6.95
2023-05-05T04:08:26.687Z,6.80
2023-05-05T04:10:53.452Z,6.90
2023-05-05T04:13:20.318Z,7.60
2023-05-05T04:15:47.309Z,7.80
2023-05-05T04:18:14.227Z,6.45
2023-05-05T04:20:41.181Z,7.95
2023-05-05T04:23:07.885Z,8.55
2023-05-05T04:25:34.620Z,9.15
2023-05-05T04:28:01.684Z,7.72
2023-05-05T04:30:28.571Z,6.65
2023-05-05T04:32:55.557Z,6.50
2023-05-05T04:35:22.617Z,6.75
2023-05-05T04:37:49.464Z,9.43
2023-05-05T04:40:16.286Z,7.97
2023-05-05T04:42:43.011Z,8.75
2023-05-05T04:45:10.313Z,7.68
2023-05-05T04:47:39.257Z,8.27
2023-05-05T04:50:07.402Z,7.40
2023-05-05T04:52:34.362Z,7.65
2023-05-05T04:55:01.347Z,6.90
2023-05-05T04:57:29.609Z,8.90
2023-05-05T04:59:56.403Z,8.38
2023-05-05T05:02:23.396Z,8.77
2023-05-05T05:04:50.190Z,9.95
2023-05-05T05:07:16.856Z,7.57
2023-05-05T05:09:43.657Z,7.40
2023-05-05T05:12:10.555Z,9.68
2023-05-05T05:14:40.455Z,6.60
2023-05-05T05:17:07.259Z,8.13
2023-05-05T05:19:33.962Z,7.88
2023-05-05T05:22:00.738Z,9.13
2023-05-05T05:24:27.891Z,9.10
2023-05-05T05:26:54.602Z,8.05
2023-05-05T05:29:21.338Z,10.40
2023-05-05T05:31:48.179Z,8.57
2023-05-05T05:34:15.021Z,8.43
2023-05-05T05:36:41.743Z,7.45
2023-05-05T05:39:17.412Z,9.65
2023-05-05T05:41:44.140Z,8.43
2023-05-05T05:44:11.012Z,8.30
2023-05-05T05:46:37.953Z,9.82
2023-05-05T05:49:04.715Z,9.57
2023-05-05T05:51:31.685Z,8.55
2023-05-05T05:53:58.983Z,9.52
2023-05-05T05:56:25.731Z,9.30
2023-05-05T05:58:52.791Z,9.52
2023-05-05T06:01:19.703Z,9.63
2023-05-05T06:03:46.904Z,10.10
2023-05-05T06:06:13.729Z,10.77
2023-05-05T06:08:40.542Z,8.90
2023-05-05T06:11:07.286Z,10.60
2023-05-05T06:13:34.337Z,9.98
2023-05-05T06:16:01.355Z,10.48
2023-05-05T06:18:28.185Z,10.98
2023-05-05T06:20:54.959Z,10.90
2023-05-05T06:23:22.210Z,9.63
2023-05-05T06:25:48.993Z,11.20
2023-05-05T06:28:16.328Z,11.10
2023-05-05T06:30:43.144Z,9.68
2023-05-05T06:33:09.896Z,9.85
2023-05-05T06:35:36.623Z,10.10
2023-05-05T06:38:03.351Z,9.13
2023-05-05T06:40:30.086Z,9.77
2023-05-05T06:42:57.096Z,10.52
2023-05-05T06:45:23.827Z,9.80
2023-05-05T06:47:50.559Z,9.00
2023-05-05T06:50:17.245Z,9.82
2023-05-05T06:52:44.058Z,8.73
2023-05-05T06:55:10.761Z,9.32
2023-05-05T06:57:37.407Z,9.68
2023-05-05T07:00:06.063Z,8.27
2023-05-05T07:02:33.823Z,7.53
2023-05-05T07:05:00.588Z,8.93
2023-05-05T07:07:27.321Z,7.20
2023-05-05T07:09:53.956Z,7.80
2023-05-05T07:12:20.694Z,8.15
2023-05-05T07:14:47.652Z,7.70
2023-05-05T07:17:14.456Z,8.02
2023-05-05T07:19:41.329Z,7.20
2023-05-05T07:22:08.062Z,7.25
2023-05-05T07:24:34.790Z,7.88
2023-05-05T07:27:01.822Z,6.28
2023-05-05T07:29:28.790Z,7.93
2023-05-05T07:31:55.652Z,8.55
2023-05-05T07:34:22.397Z,7.65
2023-05-05T07:36:49.110Z,7.50
2023-05-05T07:39:15.951Z,6.90
2023-05-05T07:41:43.468Z,7.43
2023-05-05T07:44:10.481Z,7.60
2023-05-05T07:46:37.382Z,7.57
2023-05-05T07:49:04.191Z,7.53
2023-05-05T07:51:33.282Z,8.05
2023-05-05T07:54:01.234Z,6.57
2023-05-05T07:56:27.988Z,7.10
2023-05-05T07:58:55.369Z,8.48
2023-05-05T08:01:22.348Z,7.80
2023-05-05T08:03:49.114Z,7.63
2023-05-05T08:06:22.384Z,6.40
2023-05-05T08:08:49.670Z,7.72
2023-05-05T08:11:17.117Z,8.13
2023-05-05T08:13:44.283Z,6.25
2023-05-05T08:16:11.332Z,6.57
2023-05-05T08:18:38.629Z,7.30
2023-05-05T08:21:06.435Z,6.68
2023-05-05T08:23:34.420Z,6.82
2023-05-05T08:26:02.350Z,7.28
2023-05-05T08:28:30.166Z,7.53
2023-05-05T08:30:56.811Z,7.30
2023-05-05T08:33:23.474Z,6.82
2023-05-05T08:35:50.256Z,7.22
2023-05-05T08:38:19.162Z,7.88
2023-05-05T08:40:46.015Z,6.15
2023-05-05T08:43:12.891Z,7.63
2023-05-05T08:45:43.016Z,6.75
2023-05-05T08:48:10.721Z,7.88
2023-05-05T08:50:39.643Z,6.88
2023-05-05T08:53:17.478Z,7.35
2023-05-05T08:55:56.830Z,9.25
2023-05-05T08:58:25.553Z,6.90
2023-05-05T09:00:54.029Z,8.13
2023-05-05T09:03:21.634Z,7.97
2023-05-05T09:05:48.949Z,9.65
2023-05-05T09:08:16.311Z,8.18
2023-05-05T09:10:44.908Z,8.52
2023-05-05T09:13:11.791Z,11.32
2023-05-05T09:15:39.259Z,7.75
2023-05-05T09:18:09.253Z,9.55
2023-05-05T09:20:37.929Z,8.52
2023-05-05T09:23:18.883Z,8.70
2023-05-05T09:25:48.598Z,8.77
2023-05-05T09:28:17.219Z,9.00
2023-05-05T09:30:46.979Z,9.18
2023-05-05T09:33:14.398Z,9.10
2023-05-05T09:35:55.577Z,7.03
2023-05-05T09:38:23.880Z,6.75
2023-05-05T09:40:52.830Z,8.40
2023-05-05T09:43:22.109Z,7.82
2023-05-05T09:45:49.434Z,8.68
2023-05-05T09:48:30.929Z,8.55
2023-05-05T09:50:58.958Z,8.68
2023-05-05T09:53:27.203Z,8.20
2023-05-05T09:55:58.449Z,8.38
2023-05-05T09:58:27.020Z,6.93
2023-05-05T10:00:55.874Z,10.32
2023-05-05T10:03:23.398Z,8.65
2023-05-05T10:05:52.199Z,8.35
2023-05-05T10:08:26.674Z,9.70
2023-05-05T10:10:54.358Z,8.35
2023-05-05T10:13:22.679Z,8.25
2023-05-05T10:15:51.656Z,8.65
2023-05-05T10:18:31.841Z,7.88
2023-05-05T10:21:00.747Z,10.57
2023-05-05T10:23:45.904Z,9.05
2023-05-05T10:26:14.800Z,9.15
2023-05-05T10:28:50.513Z,10.48
2023-05-05T10:31:25.651Z,8.07
2023-05-05T10:33:59.512Z,9.82
2023-05-05T10:36:28.046Z,8.10
2023-05-05T10:38:56.962Z,9.68
2023-05-05T10:41:24.709Z,8.05
2023-05-05T10:43:53.241Z,8.68
2023-05-05T10:46:20.006Z,9.95
2023-05-05T10:48:56.817Z,8.93
2023-05-05T10:51:38.398Z,9.10
2023-05-05T10:54:10.645Z,9.25
2023-05-05T10:56:41.297Z,9.27
2023-05-05T10:59:32.914Z,9.18
2023-05-05T11:01:59.655Z,9.68
2023-05-05T11:04:26.551Z,9.75
2023-05-05T11:07:10.265Z,11.00
2023-05-05T11:09:55.162Z,11.63
2023-05-05T11:14:48.456Z,8.68
2023-05-05T11:17:47.006Z,9.55
2023-05-05T11:20:13.957Z,7.28
2023-05-05T11:23:19.266Z,9.07
2023-05-05T11:25:47.198Z,10.32
2023-05-05T11:28:16.743Z,10.00
2023-05-05T11:30:58.869Z,8.98
2023-05-05T11:33:30.340Z,8.83
2023-05-05T11:36:09.747Z,9.38
2023-05-05T11:38:36.353Z,8.98
2023-05-05T11:41:13.162Z,8.85
2023-05-05T11:43:41.842Z,8.60
2023-05-05T11:46:16.995Z,9.02
2023-05-05T11:48:47.388Z,7.55
2023-05-05T11:51:15.167Z,8.60
2023-05-05T11:53:49.329Z,10.43
2023-05-05T11:56:21.897Z,9.63
2023-05-05T11:58:49.531Z,8.05
2023-05-05T12:01:16.904Z,10.65
2023-05-05T12:03:45.674Z,10.68
2023-05-05T12:06:13.365Z,10.07
2023-05-05T12:08:41.169Z,9.68
2023-05-05T12:11:09.997Z,10.63
2023-05-05T12:13:36.819Z,8.27
2023-05-05T12:16:10.448Z,8.05
2023-05-05T12:18:37.550Z,9.35
2023-05-05T12:21:18.019Z,9.82
2023-05-05T12:23:45.039Z,10.48
2023-05-05T12:26:28.876Z,10.05
2023-05-05T12:28:59.246Z,8.02
2023-05-05T12:31:39.877Z,9.55
2023-05-05T12:34:09.861Z,9.77
2023-05-05T12:36:37.400Z,10.50
2023-05-05T12:39:08.285Z,9.20
2023-05-05T12:41:35.033Z,8.48
2023-05-05T12:44:05.487Z,10.18
2023-05-05T12:46:48.034Z,9.68
2023-05-05T12:49:14.926Z,8.83
2023-05-05T12:51:54.256Z,8.65
2023-05-05T12:54:21.252Z,6.80
2023-05-05T12:56:48.256Z,5.78
2023-05-05T12:59:21.015Z,6.28
2023-05-05T13:02:00.059Z,7.20
2023-05-05T13:04:28.151Z,6.03
2023-05-05T13:07:12.882Z,5.85
2023-05-05T13:09:40.035Z,6.97
2023-05-05T13:12:14.090Z,7.20
2023-05-05T13:14:41.634Z,7.88
2023-05-05T13:17:08.893Z,6.50
2023-05-05T13:19:41.875Z,7.88
2023-05-05T13:22:10.203Z,7.82
2023-05-05T13:24:49.554Z,8.55
2023-05-05T13:27:18.081Z,7.28
2023-05-05T13:29:44.703Z,9.27
2023-05-05T13:32:11.707Z,8.38
2023-05-05T13:34:39.346Z,8.88
2023-05-05T13:37:06.487Z,8.68
2023-05-05T13:39:33.239Z,8.13
2023-05-05T13:41:59.901Z,9.40
2023-05-05T13:44:26.536Z,8.02
2023-05-05T13:46:53.232Z,8.27
2023-05-05T13:49:20.491Z,8.77
2023-05-05T13:51:47.355Z,8.02
2023-05-05T13:54:14.118Z,11.18
2023-05-05T13:56:41.090Z,9.18
2023-05-05T13:59:07.820Z,8.77
2023-05-05T14:01:34.654Z,8.40
2023-05-05T14:04:04.499Z,9.85
2023-05-05T14:06:32.742Z,60.15
2023-05-05T14:08:59.763Z,27.80
2023-05-05T14:11:26.458Z,32.70
2023-05-05T14:13:53.349Z,25.08
2023-05-05T14:16:20.168Z,21.33
2023-05-05T14:18:46.919Z,14.73
2023-05-05T14:21:13.629Z,17.95
2023-05-05T14:23:40.397Z,21.33
2023-05-05T14:26:09.194Z,19.42
2023-05-05T14:28:35.996Z,11.48
2023-05-05T14:31:02.647Z,12.05
2023-05-05T14:33:29.349Z,11.45
2023-05-05T14:35:56.099Z,11.90
2023-05-05T14:38:22.875Z,14.05
2023-05-05T14:40:49.616Z,14.45
2023-05-05T14:43:16.275Z,9.95
2023-05-05T14:45:44.318Z,9.93
2023-05-05T14:48:11.288Z,11.48
2023-05-05T14:50:39.952Z,12.05
2023-05-05T14:53:06.666Z,10.82
2023-05-05T14:55:33.371Z,9.65
2023-05-05T14:58:00.037Z,12.32
2023-05-05T15:00:27.025Z,10.80
2023-05-05T15:02:53.864Z,12.73
2023-05-05T15:05:20.587Z,11.13
2023-05-05T15:07:47.268Z,9.18
2023-05-05T15:10:13.985Z,11.25
2023-05-05T15:12:40.769Z,17.58
2023-05-05T15:15:08.764Z,38.95
2023-05-05T15:17:37.629Z,22.88
2023-05-05T15:20:08.213Z,19.08
2023-05-05T15:22:36.438Z,13.63
2023-05-05T15:25:03.309Z,17.42
2023-05-05T15:27:31.716Z,17.52
2023-05-05T15:29:58.498Z,31.25
2023-05-05T15:32:25.330Z,19.50
2023-05-05T15:34:52.040Z,19.70
2023-05-05T15:37:18.682Z,15.30
2023-05-05T15:39:45.425Z,24.77
2023-05-05T15:42:12.187Z,18.85
2023-05-05T15:44:38.928Z,15.57
2023-05-05T15:47:06.965Z,15.63
2023-05-05T15:49:33.699Z,16.40
2023-05-05T15:52:00.835Z,18.02
2023-05-05T15:54:27.566Z,16.10
2023-05-05T15:56:54.344Z,24.52
2023-05-05T15:59:21.098Z,12.60
2023-05-05T16:01:47.932Z,16.05
2023-05-05T16:04:14.737Z,12.57
2023-05-05T16:06:41.488Z,12.05
2023-05-05T16:09:08.276Z,11.23
2023-05-05T16:11:35.503Z,12.57
2023-05-05T16:14:02.330Z,16.17
2023-05-05T16:16:29.214Z,12.40
2023-05-05T16:18:55.939Z,12.32
2023-05-05T16:21:22.660Z,11.57
2023-05-05T16:23:49.359Z,12.75
2023-05-05T16:26:16.016Z,12.10
2023-05-05T16:28:42.923Z,13.35
2023-05-05T16:31:11.046Z,11.48
2023-05-05T16:33:43.533Z,11.23
2023-05-05T16:36:14.610Z,14.93
2023-05-05T16:38:41.672Z,15.52
2023-05-05T16:41:08.368Z,13.60
2023-05-05T16:43:37.274Z,12.55
2023-05-05T16:46:04.319Z,13.23
2023-05-05T16:48:31.284Z,12.48
2023-05-05T16:50:58.191Z,16.67
2023-05-05T16:53:25.195Z,13.70
2023-05-05T16:55:52.993Z,14.18
2023-05-05T16:58:20.996Z,12.57
2023-05-05T17:00:49.167Z,14.68
2023-05-05T17:03:17.159Z,13.32
2023-05-05T17:05:45.501Z,12.98
2023-05-05T17:08:14.738Z,13.57
2023-05-05T17:10:42.475Z,13.27
2023-05-05T17:13:14.110Z,12.55
2023-05-05T17:15:41.614Z,12.48
2023-05-05T17:18:08.860Z,13.30
2023-05-05T17:20:36.486Z,13.75
2023-05-05T17:23:03.380Z,11.18
2023-05-05T17:25:30.063Z,11.00
2023-05-05T17:27:57.630Z,12.77
2023-05-05T17:30:24.488Z,13.85
2023-05-05T17:32:51.212Z,11.57
2023-05-05T17:35:18.045Z,13.57
2023-05-05T17:37:44.697Z,10.35
2023-05-05T17:40:11.564Z,11.25
2023-05-05T17:42:39.084Z,10.55
2023-05-05T17:45:06.630Z,10.77
2023-05-05T17:47:33.813Z,12.27
2023-05-05T17:50:00.853Z,9.65
2023-05-05T17:52:27.605Z,8.80
2023-05-05T17:54:54.322Z,11.32
2023-05-05T17:57:21.134Z,25.10
2023-05-05T17:59:49.692Z,18.55
2023-05-05T18:02:17.092Z,24.17
2023-05-05T18:04:43.979Z,13.85
2023-05-05T18:07:12.307Z,12.55
2023-05-05T18:09:39.233Z,14.43
2023-05-05T18:12:07.017Z,12.23
2023-05-05T18:14:34.251Z,10.93
2023-05-05T18:17:01.387Z,10.60
2023-05-05T18:19:28.202Z,8.85
2023-05-05T18:21:54.885Z,9.10
2023-05-05T18:24:21.622Z,8.00
2023-05-05T18:26:50.727Z,7.60
2023-05-05T18:29:24.397Z,9.60
2023-05-05T18:31:53.224Z,8.73
2023-05-05T18:34:21.120Z,10.18
2023-05-05T18:36:48.377Z,10.30
2023-05-05T18:39:15.317Z,8.38
2023-05-05T18:41:42.047Z,9.65
2023-05-05T18:44:08.732Z,9.95
2023-05-05T18:46:35.512Z,10.82
2023-05-05T18:49:02.495Z,11.73
2023-05-05T18:51:29.211Z,9.25
2023-05-05T18:53:55.957Z,7.43
2023-05-05T18:56:22.710Z,8.57
2023-05-05T18:58:49.485Z,10.13
2023-05-05T19:01:16.627Z,7.00
2023-05-05T19:03:47.858Z,10.27
2023-05-05T19:06:15.008Z,8.60
2023-05-05T19:08:42.808Z,10.40
2023-05-05T19:11:09.833Z,7.22
2023-05-05T19:16:03.314Z,9.07
2023-05-05T19:18:30.044Z,8.88
2023-05-05T19:20:56.685Z,9.02
2023-05-05T19:23:23.529Z,8.20
2023-05-05T19:25:53.607Z,8.45
2023-05-05T19:28:20.291Z,7.35
2023-05-05T19:30:48.914Z,5.68
2023-05-05T19:33:16.488Z,8.82
2023-05-05T19:35:44.084Z,8.65
2023-05-05T19:38:10.958Z,8.35
2023-05-05T19:40:39.087Z,7.20
2023-05-05T19:43:06.034Z,9.43
2023-05-05T19:45:33.883Z,8.77
2023-05-05T19:48:03.753Z,8.30
2023-05-05T19:50:31.646Z,8.32
2023-05-05T19:52:58.495Z,6.55
2023-05-05T19:55:25.716Z,7.85
2023-05-05T19:57:52.497Z,7.72
2023-05-05T20:00:19.903Z,7.97
2023-05-05T20:02:48.655Z,9.48
2023-05-05T20:05:17.329Z,7.78
2023-05-05T20:07:46.414Z,7.47
2023-05-05T20:10:13.569Z,7.38
2023-05-05T20:12:47.601Z,8.60
2023-05-05T20:15:19.435Z,7.50
2023-05-05T20:17:47.528Z,7.72
2023-05-05T20:20:21.979Z,6.20
2023-05-05T20:22:49.399Z,7.30
2023-05-05T20:25:16.465Z,8.77
2023-05-05T20:27:43.842Z,8.73
2023-05-05T20:30:12.253Z,7.47
2023-05-05T20:32:39.158Z,6.03
2023-05-05T20:35:06.449Z,7.43
2023-05-05T20:37:33.243Z,6.85
2023-05-05T20:40:00.058Z,6.65
2023-05-05T20:42:27.921Z,7.60
2023-05-05T20:44:54.779Z,6.63
2023-05-05T20:47:21.466Z,6.68
2023-05-05T20:49:48.211Z,6.82
2023-05-05T20:52:14.940Z,5.25
2023-05-05T20:54:41.738Z,8.95
2023-05-05T20:57:08.489Z,8.25
2023-05-05T20:59:35.213Z,6.40
2023-05-05T21:02:01.970Z,5.47
2023-05-05T21:04:28.755Z,6.03
2023-05-05T21:06:57.459Z,6.88
2023-05-05T21:09:24.326Z,7.20
2023-05-05T21:11:51.109Z,7.68
2023-05-05T21:14:17.928Z,8.65
2023-05-05T21:16:44.690Z,5.38
2023-05-05T21:19:11.533Z,6.77
2023-05-05T21:21:38.441Z,6.50
2023-05-05T21:24:07.659Z,5.05
2023-05-05T21:26:34.661Z,5.57
2023-05-05T21:29:01.568Z,5.18
2023-05-05T21:31:28.352Z,5.55
2023-05-05T21:33:55.078Z,5.65
2023-05-05T21:36:22.134Z,6.25
2023-05-05T21:38:49.594Z,6.97
2023-05-05T21:41:16.963Z,4.85
2023-05-05T21:43:43.836Z,6.00
2023-05-05T21:46:10.664Z,8.25
2023-05-05T21:48:39.162Z,5.50
2023-05-05T21:51:06.937Z,5.35
2023-05-05T21:53:33.774Z,6.65
2023-05-05T21:56:01.134Z,5.57
2023-05-05T21:58:27.904Z,4.57
2023-05-05T22:00:57.932Z,6.88
2023-05-05T22:03:24.795Z,7.18
2023-05-05T22:05:52.026Z,4.55
2023-05-05T22:08:19.705Z,4.63
2023-05-05T22:10:46.872Z,5.85
2023-05-05T22:13:14.656Z,6.50
2023-05-05T22:15:46.680Z,5.30
2023-05-05T22:18:14.248Z,5.45
2023-05-05T22:20:41.026Z,5.00
2023-05-05T22:23:07.706Z,6.20
2023-05-05T22:25:34.442Z,6.82
2023-05-05T22:28:01.208Z,4.90
2023-05-05T22:30:28.028Z,5.07
2023-05-05T22:32:55.278Z,5.32
2023-05-05T22:35:22.092Z,4.45
2023-05-05T22:37:48.822Z,4.75
2023-05-05T22:40:15.703Z,4.60
2023-05-05T22:42:42.453Z,4.60
2023-05-05T22:45:09.728Z,5.43
2023-05-05T22:47:36.941Z,5.63
2023-05-05T22:50:03.752Z,5.30
2023-05-05T22:52:33.271Z,4.22
2023-05-05T22:54:59.982Z,4.70
2023-05-05T22:57:26.606Z,4.47
2023-05-05T22:59:53.352Z,6.15
2023-05-05T23:02:27.067Z,4.88
2023-05-05T23:04:53.835Z,5.60
2023-05-05T23:07:20.738Z,5.68
2023-05-05T23:09:48.102Z,7.07
2023-05-05T23:12:16.960Z,7.40
2023-05-05T23:14:43.980Z,6.63
2023-05-05T23:17:10.809Z,6.13
2023-05-05T23:19:37.813Z,5.25
2023-05-05T23:22:05.014Z,6.07
2023-05-05T23:24:31.782Z,6.82
2023-05-05T23:26:59.778Z,7.20
2023-05-05T23:29:26.629Z,4.75
2023-05-05T23:31:53.422Z,6.60
2023-05-05T23:34:20.165Z,4.40
2023-05-05T23:36:46.857Z,6.50
2023-05-05T23:39:13.611Z,7.55
2023-05-05T23:41:40.268Z,6.90
2023-05-05T23:44:07.212Z,6.45
2023-05-05T23:46:34.074Z,5.55
2023-05-05T23:49:00.833Z,6.35
2023-05-05T23:51:27.489Z,6.72
2023-05-05T23:53:56.681Z,6.82
2023-05-05T23:56:24.514Z,5.45
2023-05-05T23:58:52.536Z,5.85
